Time;durP1;ratioP1;P1;durP2;ratioP2;P2;SDS_P1;SDS_P2;PMS_P1;PMS_P2;Temp;Humidity;BMP_temperature;BMP_pressure;BME280_temperature;BME280_humidity;BME280_pressure;Samples;Min_cycle;Max_cycle;Signal;HPM_P1;HPM_P2
2022/11/08 00:01:47;;;;;;;10.20;2.60;;;13.30;99.90;;;;;;5051526;28;20028;-64
2022/11/08 00:04:14;;;;;;;6.85;1.95;;;13.20;99.90;;;;;;5053965;28;20025;-64
2022/11/08 00:14:54;;;;;;;9.23;2.53;;;13.00;99.90;;;;;;5050041;28;20028;-64
2022/11/08 00:17:21;;;;;;;9.75;1.75;;;12.90;99.90;;;;;;5051657;28;20021;-64
2022/11/08 00:19:46;;;;;;;9.25;1.83;;;12.90;99.90;;;;;;5057710;28;20024;-64
2022/11/08 00:22:13;;;;;;;10.98;2.05;;;12.80;99.90;;;;;;5066959;28;20035;-64
2022/11/08 00:24:38;;;;;;;7.50;1.70;;;12.80;99.90;;;;;;5056298;28;20025;-64
2022/11/08 00:27:07;;;;;;;8.13;1.88;;;12.80;99.90;;;;;;5053997;28;20424;-64
2022/11/08 00:29:36;;;;;;;6.70;1.52;;;12.70;99.90;;;;;;5060540;28;20021;-64
2022/11/08 00:32:03;;;;;;;9.30;1.60;;;12.70;99.90;;;;;;5059986;28;20024;-64
2022/11/08 00:34:28;;;;;;;6.03;1.40;;;12.60;99.90;;;;;;5057045;28;20533;-64
2022/11/08 00:36:54;;;;;;;7.47;1.90;;;12.60;99.90;;;;;;5053334;28;20024;-64
2022/11/08 00:39:19;;;;;;;11.13;2.30;;;12.60;99.90;;;;;;5065075;28;20391;-64
2022/11/08 00:41:45;;;;;;;6.03;1.55;;;12.50;99.90;;;;;;5064207;28;20028;-64
2022/11/08 00:44:11;;;;;;;7.75;1.70;;;12.50;99.90;;;;;;5052425;28;20457;-64
2022/11/08 00:46:37;;;;;;;11.00;2.03;;;12.50;99.90;;;;;;5058009;28;20024;-64
2022/11/08 00:49:03;;;;;;;10.77;2.08;;;12.40;99.90;;;;;;5068156;28;20108;-64
2022/11/08 00:51:29;;;;;;;8.85;1.95;;;12.40;99.90;;;;;;5068062;28;20107;-64
2022/11/08 00:53:54;;;;;;;11.38;1.95;;;12.30;99.90;;;;;;5055336;28;20096;-64
2022/11/08 00:56:20;;;;;;;13.25;2.08;;;12.30;99.90;;;;;;5053302;28;20043;-64
2022/11/08 00:58:45;;;;;;;7.45;2.28;;;12.30;99.90;;;;;;5054925;28;20071;-64
2022/11/08 01:01:14;;;;;;;11.65;2.58;;;12.20;99.90;;;;;;5060009;28;20021;-64
2022/11/08 01:03:39;;;;;;;10.13;2.38;;;12.30;99.90;;;;;;5057901;28;20124;-64
2022/11/08 01:06:07;;;;;;;10.75;2.22;;;12.20;99.90;;;;;;5061181;28;20095;-64
2022/11/08 01:08:33;;;;;;;10.20;2.13;;;12.20;99.90;;;;;;5055863;28;20025;-64
2022/11/08 01:11:02;;;;;;;5.43;1.77;;;12.20;99.90;;;;;;5058592;28;20036;-64
2022/11/08 01:13:28;;;;;;;7.80;1.70;;;12.10;99.90;;;;;;5057921;28;20045;-64
2022/11/08 01:15:54;;;;;;;7.53;1.70;;;12.10;99.90;;;;;;5070271;28;20043;-64
2022/11/08 01:18:19;;;;;;;5.63;1.67;;;12.10;99.90;;;;;;5060309;28;20028;-64
2022/11/08 01:20:46;;;;;;;9.80;2.42;;;12.10;99.90;;;;;;5071311;28;20044;-64
2022/11/08 01:23:12;;;;;;;7.68;1.95;;;12.10;99.90;;;;;;5059164;28;20028;-64
2022/11/08 01:25:41;;;;;;;8.73;2.63;;;12.10;99.90;;;;;;5053471;28;20025;-64
2022/11/08 01:28:07;;;;;;;8.25;2.17;;;12.00;99.90;;;;;;5068313;28;20025;-64
2022/11/08 01:30:37;;;;;;;11.23;2.60;;;12.00;99.90;;;;;;5060387;28;20025;-64
2022/11/08 01:33:03;;;;;;;11.52;2.17;;;12.00;99.90;;;;;;5058912;28;20021;-64
2022/11/08 01:35:31;;;;;;;9.43;2.72;;;12.00;99.90;;;;;;5059146;28;20642;-64
2022/11/08 01:37:57;;;;;;;10.02;2.75;;;11.90;99.90;;;;;;5054249;28;20052;-64
2022/11/08 01:40:22;;;;;;;8.55;2.00;;;11.90;99.90;;;;;;5061556;28;20024;-64
2022/11/08 01:42:48;;;;;;;14.80;2.65;;;11.80;99.90;;;;;;5055699;28;20171;-64
2022/11/08 01:45:13;;;;;;;10.88;2.60;;;11.80;99.90;;;;;;5058246;28;20032;-64
2022/11/08 01:47:39;;;;;;;16.08;2.55;;;11.80;99.90;;;;;;5056441;28;20039;-64
2022/11/08 01:50:10;;;;;;;10.15;2.03;;;11.80;99.90;;;;;;5052797;28;20025;-64
2022/11/08 01:52:44;;;;;;;8.07;2.80;;;11.80;99.90;;;;;;5064093;28;20052;-64
2022/11/08 01:55:18;;;;;;;10.63;2.35;;;11.80;99.90;;;;;;5056204;28;20029;-64
2022/11/08 01:58:01;;;;;;;9.13;2.35;;;11.70;99.90;;;;;;5054736;28;20721;-64
2022/11/08 02:00:27;;;;;;;10.75;2.85;;;11.80;99.90;;;;;;5066203;28;20094;-64
2022/11/08 02:03:00;;;;;;;9.82;3.45;;;11.80;99.90;;;;;;5055852;28;20079;-64
2022/11/08 02:05:28;;;;;;;8.73;2.47;;;11.80;99.90;;;;;;5055062;28;20047;-64
2022/11/08 02:08:09;;;;;;;9.77;2.97;;;11.80;99.90;;;;;;5052417;28;20021;-64
2022/11/08 02:10:38;;;;;;;9.98;3.22;;;11.80;99.90;;;;;;5055509;28;20083;-64
2022/11/08 02:13:08;;;;;;;8.25;2.20;;;11.80;99.90;;;;;;5057655;28;20013;-64
2022/11/08 02:15:33;;;;;;;12.65;2.88;;;11.70;99.90;;;;;;5053929;28;20029;-64
2022/11/08 02:17:59;;;;;;;14.90;2.78;;;11.70;99.90;;;;;;5052676;28;20027;-64
2022/11/08 02:20:26;;;;;;;9.73;2.08;;;11.70;99.90;;;;;;5064267;28;20020;-64
2022/11/08 02:22:59;;;;;;;7.30;2.10;;;11.70;99.90;;;;;;5058782;28;20025;-64
2022/11/08 02:25:25;;;;;;;13.30;2.92;;;11.80;99.90;;;;;;5055618;28;20104;-64
2022/11/08 02:27:51;;;;;;;9.60;2.03;;;11.80;99.90;;;;;;5057355;28;20401;-64
2022/11/08 02:30:17;;;;;;;7.45;2.17;;;11.80;99.90;;;;;;5052465;28;20536;-64
2022/11/08 02:32:42;;;;;;;8.43;2.20;;;11.80;99.90;;;;;;5055780;28;20104;-64
2022/11/08 02:35:13;;;;;;;9.43;2.38;;;11.80;99.90;;;;;;5055196;28;20524;-64
2022/11/08 02:37:39;;;;;;;8.40;2.15;;;11.80;99.90;;;;;;5053233;28;20093;-64
2022/11/08 02:40:05;;;;;;;8.13;1.88;;;11.80;99.90;;;;;;5065390;28;20445;-64
2022/11/08 02:42:31;;;;;;;6.47;1.85;;;11.80;99.90;;;;;;5055471;28;20036;-63
2022/11/08 02:44:56;;;;;;;14.25;2.28;;;11.80;99.90;;;;;;5050100;28;20028;-64
2022/11/08 02:47:23;;;;;;;6.88;2.33;;;11.90;99.90;;;;;;5054920;28;20028;-64
2022/11/08 02:49:48;;;;;;;5.03;1.92;;;11.80;99.90;;;;;;5057309;28;20021;-64
2022/11/08 02:52:14;;;;;;;11.63;2.50;;;11.80;99.90;;;;;;5054793;28;20431;-64
2022/11/08 02:54:40;;;;;;;6.72;2.08;;;11.80;99.90;;;;;;5053394;28;20032;-64
2022/11/08 02:57:05;;;;;;;9.00;2.20;;;11.90;99.90;;;;;;5067898;28;20075;-64
2022/11/08 02:59:31;;;;;;;11.80;1.98;;;11.90;99.90;;;;;;5064878;28;20032;-64
2022/11/08 03:01:56;;;;;;;7.63;2.28;;;11.80;99.90;;;;;;5058923;28;20528;-64
2022/11/08 03:04:22;;;;;;;8.90;2.40;;;11.90;99.90;;;;;;5054392;28;20021;-64
2022/11/08 03:06:47;;;;;;;8.45;2.33;;;11.90;99.90;;;;;;5055249;28;20614;-64
2022/11/08 03:09:13;;;;;;;10.20;1.85;;;11.90;99.90;;;;;;5054465;28;20107;-64
2022/11/08 03:11:38;;;;;;;6.30;1.90;;;11.90;99.90;;;;;;5064975;28;20024;-64
2022/11/08 03:14:04;;;;;;;8.27;2.33;;;11.90;99.90;;;;;;5054225;28;20056;-64
2022/11/08 03:16:30;;;;;;;8.23;2.05;;;11.80;99.90;;;;;;5055124;28;21155;-64
2022/11/08 03:18:55;;;;;;;8.63;2.33;;;11.80;99.90;;;;;;5057273;28;20028;-64
2022/11/08 03:21:21;;;;;;;7.95;2.10;;;11.80;99.90;;;;;;5053154;28;20041;-64
2022/11/08 03:23:46;;;;;;;8.55;2.20;;;11.80;99.90;;;;;;5054228;28;20028;-64
2022/11/08 03:26:12;;;;;;;8.93;2.08;;;11.90;99.90;;;;;;5078272;28;20414;-64
2022/11/08 03:28:37;;;;;;;6.93;1.73;;;11.90;99.90;;;;;;5053423;28;20040;-64
2022/11/08 03:31:03;;;;;;;6.90;1.80;;;11.90;99.90;;;;;;5050775;28;20539;-64
2022/11/08 03:33:28;;;;;;;10.10;2.45;;;11.80;99.90;;;;;;5053670;28;20025;-64
2022/11/08 03:35:54;;;;;;;7.45;2.05;;;11.80;99.90;;;;;;5054127;28;20392;-64
2022/11/08 03:38:20;;;;;;;8.20;1.60;;;11.90;99.90;;;;;;5056670;28;20074;-64
2022/11/08 03:40:45;;;;;;;6.35;1.60;;;11.90;99.90;;;;;;5064367;28;20024;-64
2022/11/08 03:43:11;;;;;;;8.38;1.90;;;11.90;99.90;;;;;;5062554;28;20044;-64
2022/11/08 03:45:37;;;;;;;7.45;1.70;;;11.90;99.90;;;;;;5064105;28;20369;-64
2022/11/08 03:48:03;;;;;;;9.60;1.65;;;11.90;99.90;;;;;;5054011;28;20040;-64
2022/11/08 03:50:28;;;;;;;9.65;2.30;;;11.90;99.90;;;;;;5052450;28;20150;-64
2022/11/08 03:52:55;;;;;;;6.68;1.92;;;11.90;99.90;;;;;;5054852;28;20017;-64
2022/11/08 03:55:24;;;;;;;7.32;1.65;;;11.90;99.90;;;;;;5053949;28;20020;-64
2022/11/08 03:57:49;;;;;;;6.90;1.75;;;11.90;99.90;;;;;;5057947;28;20371;-64
2022/11/08 04:00:17;;;;;;;5.47;1.70;;;11.90;99.90;;;;;;5053394;28;20024;-64
2022/11/08 04:02:43;;;;;;;6.60;1.60;;;11.90;99.90;;;;;;5059190;28;20020;-64
2022/11/08 04:05:11;;;;;;;7.47;1.75;;;11.90;99.90;;;;;;5056155;28;20503;-63
2022/11/08 04:07:36;;;;;;;5.68;1.52;;;11.90;99.90;;;;;;5056308;28;20036;-64
2022/11/08 04:10:06;;;;;;;6.82;2.30;;;11.80;99.90;;;;;;5058705;28;20487;-64
2022/11/08 04:15:20;;;;;;;5.60;1.60;;;11.70;99.90;;;;;;5051071;28;19978;-64
2022/11/08 04:23:17;;;;;;;5.25;1.58;;;11.60;99.90;;;;;;5052003;28;20117;-64
2022/11/08 04:25:44;;;;;;;7.75;2.28;;;11.60;99.90;;;;;;5054981;28;20035;-64
2022/11/08 04:28:10;;;;;;;10.20;2.33;;;11.60;99.90;;;;;;5064803;28;20027;-64
2022/11/08 04:30:36;;;;;;;6.88;2.22;;;11.60;99.90;;;;;;5053149;28;20471;-64
2022/11/08 04:33:03;;;;;;;7.55;1.90;;;11.60;99.90;;;;;;5050841;28;20040;-64
2022/11/08 04:35:29;;;;;;;8.48;2.55;;;11.60;99.90;;;;;;5048975;28;20029;-64
2022/11/08 04:37:59;;;;;;;8.13;1.80;;;11.60;99.90;;;;;;5051648;28;20039;-64
2022/11/08 04:40:25;;;;;;;6.45;1.58;;;11.60;99.90;;;;;;5058536;28;20037;-64
2022/11/08 04:42:50;;;;;;;8.30;2.03;;;11.60;99.90;;;;;;5054382;28;20064;-64
2022/11/08 04:45:16;;;;;;;3.88;1.50;;;11.70;99.90;;;;;;5051802;28;20131;-64
2022/11/08 04:47:45;;;;;;;6.90;1.73;;;11.60;99.90;;;;;;5053561;28;20082;-64
2022/11/08 04:50:13;;;;;;;5.38;1.40;;;11.70;99.90;;;;;;5055541;28;20024;-64
2022/11/08 04:52:39;;;;;;;5.43;1.50;;;11.70;99.90;;;;;;5047276;28;20017;-64
2022/11/08 04:55:06;;;;;;;6.95;1.48;;;11.70;99.90;;;;;;5050561;28;20484;-64
2022/11/08 04:57:31;;;;;;;5.13;1.40;;;11.70;99.90;;;;;;5049577;28;20047;-64
2022/11/08 04:59:57;;;;;;;4.40;1.55;;;11.70;99.90;;;;;;5049534;28;20037;-64
2022/11/08 05:02:22;;;;;;;7.85;2.05;;;11.70;99.90;;;;;;5055402;28;20080;-64
2022/11/08 05:04:48;;;;;;;3.30;1.23;;;11.70;99.90;;;;;;5051486;28;20025;-64
2022/11/08 05:07:13;;;;;;;8.52;1.98;;;11.70;99.90;;;;;;5062863;28;20040;-64
2022/11/08 05:09:39;;;;;;;3.90;1.20;;;11.70;99.90;;;;;;5051874;28;20021;-64
2022/11/08 05:12:04;;;;;;;7.22;1.38;;;11.70;99.90;;;;;;5052841;28;20043;-64
2022/11/08 05:14:30;;;;;;;3.95;1.40;;;11.70;99.90;;;;;;5054188;28;20053;-64
2022/11/08 05:16:56;;;;;;;8.45;1.60;;;11.70;99.90;;;;;;5069825;28;20444;-64
2022/11/08 05:24:54;;;;;;;5.10;1.60;;;11.70;99.90;;;;;;5056921;28;20043;-64
2022/11/08 05:27:20;;;;;;;7.80;2.10;;;11.80;99.90;;;;;;5054960;28;20032;-64
2022/11/08 05:29:45;;;;;;;5.78;1.85;;;11.80;99.90;;;;;;5062725;28;20384;-64
2022/11/08 05:32:11;;;;;;;5.13;1.27;;;11.80;99.90;;;;;;5054983;28;20379;-64
2022/11/08 05:34:36;;;;;;;5.53;1.35;;;11.80;99.90;;;;;;5081464;28;20017;-64
2022/11/08 05:37:02;;;;;;;4.38;1.55;;;11.80;99.90;;;;;;5066544;28;20113;-64
2022/11/08 05:39:27;;;;;;;2.88;1.40;;;11.80;99.90;;;;;;5066403;28;20043;-64
2022/11/08 05:41:53;;;;;;;7.05;1.55;;;11.80;99.90;;;;;;5056682;28;20489;-64
2022/11/08 05:44:18;;;;;;;6.82;1.27;;;11.70;99.90;;;;;;5054998;28;20049;-64
2022/11/08 05:46:44;;;;;;;5.38;1.30;;;11.80;99.90;;;;;;5052695;28;20025;-64
2022/11/08 05:49:09;;;;;;;4.90;1.48;;;11.70;99.90;;;;;;5055240;28;20016;-64
2022/11/08 05:51:35;;;;;;;12.48;2.08;;;11.70;99.90;;;;;;5057205;28;20468;-64
2022/11/08 05:54:00;;;;;;;7.95;1.67;;;11.70;99.90;;;;;;5062465;28;20143;-64
2022/11/08 05:56:26;;;;;;;6.35;1.30;;;11.70;99.90;;;;;;5052493;28;20056;-64
2022/11/08 05:58:51;;;;;;;5.63;1.45;;;11.70;99.90;;;;;;5077643;28;20114;-64
2022/11/08 06:01:18;;;;;;;5.07;1.42;;;11.70;99.90;;;;;;5061971;28;20036;-64
2022/11/08 06:03:45;;;;;;;7.72;1.83;;;11.70;99.90;;;;;;5053164;28;20112;-64
2022/11/08 06:06:17;;;;;;;4.15;1.08;;;11.70;99.90;;;;;;5054436;28;20077;-64
2022/11/08 06:08:43;;;;;;;5.45;1.50;;;11.70;99.90;;;;;;5052188;28;20017;-64
2022/11/08 06:11:15;;;;;;;5.22;1.88;;;11.70;99.90;;;;;;5055074;28;20025;-64
2022/11/08 06:13:41;;;;;;;4.82;1.38;;;11.70;99.90;;;;;;5056197;28;20030;-64
2022/11/08 06:16:10;;;;;;;5.30;1.17;;;11.70;99.90;;;;;;5052297;28;20477;-64
2022/11/08 06:18:37;;;;;;;7.78;1.50;;;11.70;99.90;;;;;;5055435;28;20032;-64
2022/11/08 06:21:05;;;;;;;3.70;1.38;;;11.60;99.90;;;;;;5072357;28;20115;-64
2022/11/08 06:23:31;;;;;;;3.75;1.50;;;11.70;99.90;;;;;;5071389;28;20028;-64
2022/11/08 06:25:57;;;;;;;8.07;2.25;;;11.70;99.90;;;;;;5074584;28;20028;-64
2022/11/08 06:28:23;;;;;;;5.82;1.30;;;11.60;99.90;;;;;;5072260;28;20527;-64
2022/11/08 06:30:49;;;;;;;4.55;1.27;;;11.60;99.90;;;;;;5074064;28;20032;-64
2022/11/08 06:33:15;;;;;;;7.50;1.50;;;11.60;99.90;;;;;;5073399;28;20075;-64
2022/11/08 06:35:41;;;;;;;5.85;1.60;;;11.60;99.90;;;;;;5074023;28;20028;-64
2022/11/08 06:38:06;;;;;;;4.53;1.38;;;11.60;99.90;;;;;;5071054;28;20060;-64
2022/11/08 06:40:38;;;;;;;4.57;1.40;;;11.60;99.90;;;;;;5073826;28;20480;-64
2022/11/08 06:43:05;;;;;;;4.20;1.40;;;11.60;99.90;;;;;;5073519;28;20079;-64
2022/11/08 06:45:31;;;;;;;5.00;1.60;;;11.60;99.90;;;;;;5063283;28;20029;-64
2022/11/08 06:47:57;;;;;;;4.32;1.33;;;11.50;99.90;;;;;;5072074;28;20427;-64
2022/11/08 06:50:23;;;;;;;5.80;1.70;;;11.60;99.90;;;;;;5063308;28;20535;-64
2022/11/08 06:53:00;;;;;;;4.20;1.10;;;11.60;99.90;;;;;;5067596;28;20028;-64
2022/11/08 06:55:29;;;;;;;3.53;1.30;;;11.60;99.90;;;;;;5086032;28;20447;-64
2022/11/08 06:57:54;;;;;;;5.45;1.38;;;11.60;99.90;;;;;;5073718;28;20103;-64
2022/11/08 07:00:21;;;;;;;5.63;1.75;;;11.50;99.90;;;;;;5073086;28;20124;-64
2022/11/08 07:02:52;;;;;;;5.82;1.65;;;11.60;99.90;;;;;;5073457;28;20039;-64
2022/11/08 07:05:17;;;;;;;4.53;1.50;;;11.60;99.90;;;;;;5059220;28;20420;-64
2022/11/08 07:07:43;;;;;;;6.68;2.22;;;11.60;99.90;;;;;;5060889;28;20078;-64
2022/11/08 07:10:08;;;;;;;6.32;1.77;;;11.60;99.90;;;;;;5072560;28;20025;-64
2022/11/08 07:12:34;;;;;;;4.68;1.40;;;11.60;99.90;;;;;;5063817;28;20021;-64
2022/11/08 07:14:59;;;;;;;4.82;1.40;;;11.60;99.90;;;;;;5068837;28;20027;-64
2022/11/08 07:17:25;;;;;;;4.13;1.48;;;11.60;99.90;;;;;;5073136;28;20077;-64
2022/11/08 07:19:51;;;;;;;5.05;1.52;;;11.60;99.90;;;;;;5071513;28;20526;-64
2022/11/08 07:22:16;;;;;;;4.18;1.13;;;11.70;99.90;;;;;;5062796;28;20078;-64
2022/11/08 07:24:42;;;;;;;5.72;1.52;;;11.70;99.90;;;;;;5068419;28;20118;-64
2022/11/08 07:27:07;;;;;;;4.20;1.45;;;11.80;99.90;;;;;;5070839;28;20455;-64
2022/11/08 07:29:33;;;;;;;4.53;1.75;;;11.90;99.90;;;;;;5067285;28;20221;-64
2022/11/08 07:31:58;;;;;;;3.78;1.35;;;12.00;99.90;;;;;;5070163;28;20020;-64
2022/11/08 07:34:24;;;;;;;6.15;1.50;;;12.00;99.90;;;;;;5072089;28;20491;-64
2022/11/08 07:36:49;;;;;;;5.65;1.63;;;12.10;99.90;;;;;;5070486;28;20036;-64
2022/11/08 07:39:14;;;;;;;3.83;1.77;;;12.10;99.90;;;;;;5069821;28;20027;-64
2022/11/08 07:41:40;;;;;;;6.35;1.27;;;12.20;99.90;;;;;;5064991;28;20031;-64
2022/11/08 07:44:06;;;;;;;4.65;1.50;;;12.30;99.90;;;;;;5069566;28;20404;-64
2022/11/08 07:46:31;;;;;;;3.75;1.38;;;12.20;99.90;;;;;;5072687;28;20125;-64
2022/11/08 07:48:56;;;;;;;5.60;1.35;;;12.30;99.90;;;;;;5070259;28;20491;-64
2022/11/08 07:51:22;;;;;;;3.95;1.55;;;12.30;99.90;;;;;;5072440;28;20029;-64
2022/11/08 07:53:48;;;;;;;6.20;1.73;;;12.30;99.90;;;;;;5071293;28;20024;-64
2022/11/08 07:56:13;;;;;;;2.85;1.42;;;12.30;99.90;;;;;;5060995;28;20087;-64
2022/11/08 07:58:39;;;;;;;4.82;1.60;;;12.30;99.90;;;;;;5060643;28;20052;-64
2022/11/08 08:01:05;;;;;;;5.45;2.00;;;12.30;99.90;;;;;;5072589;28;20056;-64
2022/11/08 08:03:31;;;;;;;3.53;2.20;;;12.30;99.90;;;;;;5068511;28;20431;-64
2022/11/08 08:05:57;;;;;;;3.25;1.33;;;12.30;99.90;;;;;;5058491;28;20021;-64
2022/11/08 08:08:22;;;;;;;9.18;2.13;;;12.30;99.90;;;;;;5072412;28;20396;-64
2022/11/08 08:10:48;;;;;;;4.45;1.63;;;12.30;99.90;;;;;;5071554;28;20020;-64
2022/11/08 08:13:14;;;;;;;9.40;2.65;;;12.30;99.90;;;;;;5070793;28;20035;-64
2022/11/08 08:15:40;;;;;;;6.47;1.90;;;12.30;99.90;;;;;;5069383;28;20093;-64
2022/11/08 08:18:07;;;;;;;3.28;1.83;;;12.40;99.90;;;;;;5068687;28;20031;-64
2022/11/08 08:20:33;;;;;;;3.90;1.60;;;12.40;99.90;;;;;;5065566;28;20033;-64
2022/11/08 08:22:59;;;;;;;4.70;1.77;;;12.40;99.90;;;;;;5052706;28;20064;-64
2022/11/08 08:25:27;;;;;;;5.10;1.88;;;12.40;99.90;;;;;;5070318;28;20020;-64
2022/11/08 08:27:55;;;;;;;3.97;2.15;;;12.40;99.90;;;;;;5070516;28;20016;-64
2022/11/08 08:30:22;;;;;;;4.07;1.65;;;12.50;99.90;;;;;;5069683;28;20020;-64
2022/11/08 08:32:48;;;;;;;6.90;2.08;;;12.50;99.80;;;;;;5070612;28;20120;-64
2022/11/08 08:35:14;;;;;;;5.30;2.05;;;12.60;99.60;;;;;;5070683;28;20099;-64
2022/11/08 08:37:40;;;;;;;7.20;1.83;;;12.60;99.60;;;;;;5085630;28;20119;-64
2022/11/08 08:40:06;;;;;;;3.42;1.38;;;12.60;99.40;;;;;;5070542;28;20031;-64
2022/11/08 08:42:35;;;;;;;4.28;1.70;;;12.60;99.10;;;;;;5070466;28;20028;-63
2022/11/08 08:45:00;;;;;;;5.07;1.58;;;12.70;99.00;;;;;;5068032;28;20473;-64
2022/11/08 08:47:27;;;;;;;3.28;1.40;;;12.70;99.00;;;;;;5072955;28;20024;-64
2022/11/08 08:49:52;;;;;;;4.45;1.23;;;12.80;98.90;;;;;;5074755;28;20477;-64
2022/11/08 08:52:18;;;;;;;6.10;1.30;;;12.80;98.70;;;;;;5074279;28;20031;-64
2022/11/08 08:54:45;;;;;;;3.92;1.10;;;12.90;98.70;;;;;;5072946;28;20023;-64
2022/11/08 08:57:10;;;;;;;4.25;1.45;;;12.90;98.60;;;;;;5072123;28;20058;-64
2022/11/08 08:59:36;;;;;;;4.03;1.40;;;12.90;98.10;;;;;;5074726;28;20082;-64
2022/11/08 09:02:01;;;;;;;6.60;1.17;;;13.00;98.10;;;;;;5074421;28;20032;-64
2022/11/08 09:04:27;;;;;;;5.03;1.33;;;13.00;98.10;;;;;;5072725;28;20492;-65
2022/11/08 09:06:53;;;;;;;3.15;1.63;;;13.00;98.10;;;;;;5074216;28;20052;-64
2022/11/08 09:09:19;;;;;;;3.40;1.38;;;13.00;97.70;;;;;;5074242;28;20063;-64
2022/11/08 09:11:45;;;;;;;6.35;1.45;;;13.10;98.10;;;;;;5073944;28;20029;-64
2022/11/08 09:14:10;;;;;;;9.40;1.58;;;13.10;97.90;;;;;;5074126;28;20021;-64
2022/11/08 09:16:38;;;;;;;5.60;1.30;;;13.00;97.80;;;;;;5074080;28;20031;-64
2022/11/08 09:19:04;;;;;;;3.72;1.42;;;13.00;97.80;;;;;;5071165;28;20063;-64
2022/11/08 09:21:29;;;;;;;5.65;1.35;;;13.10;97.50;;;;;;5074363;28;20063;-64
2022/11/08 09:23:55;;;;;;;4.90;1.50;;;13.10;97.80;;;;;;5067919;28;20079;-64
2022/11/08 09:26:20;;;;;;;6.53;1.42;;;13.10;97.70;;;;;;5058268;28;20506;-64
2022/11/08 09:28:46;;;;;;;3.55;1.30;;;13.10;97.50;;;;;;5075202;28;20096;-64
2022/11/08 09:31:12;;;;;;;4.60;1.38;;;13.20;97.60;;;;;;5073792;28;20028;-64
2022/11/08 09:33:39;;;;;;;3.88;1.05;;;13.30;97.20;;;;;;5075225;28;20020;-64
2022/11/08 09:36:07;;;;;;;3.78;1.27;;;13.30;97.60;;;;;;5074766;28;20437;-64
2022/11/08 09:38:33;;;;;;;5.25;1.35;;;13.40;97.00;;;;;;5073901;28;20059;-64
2022/11/08 09:41:20;;;;;;;4.35;1.30;;;13.50;96.90;;;;;;5074622;28;20064;-64
2022/11/08 09:44:04;;;;;;;4.05;1.45;;;13.50;96.70;;;;;;5070586;28;20055;-64
2022/11/08 09:46:41;;;;;;;2.97;1.45;;;13.50;97.10;;;;;;5073384;28;20551;-64
2022/11/08 09:49:27;;;;;;;3.47;1.25;;;13.50;97.00;;;;;;5072113;28;20021;-64
2022/11/08 09:51:53;;;;;;;5.80;1.30;;;13.50;96.80;;;;;;5073363;28;20020;-64
2022/11/08 09:54:30;;;;;;;3.83;1.40;;;13.50;96.90;;;;;;5073386;28;20020;-64
2022/11/08 09:56:56;;;;;;;4.55;1.40;;;13.50;97.20;;;;;;5072077;28;20036;-64
2022/11/08 09:59:35;;;;;;;6.75;2.42;;;13.60;96.90;;;;;;5071992;28;20029;-64
2022/11/08 10:02:01;;;;;;;5.43;1.77;;;13.70;97.00;;;;;;5071625;28;20021;-64
2022/11/08 10:04:29;;;;;;;7.25;1.75;;;13.80;96.80;;;;;;5066038;28;20056;-64
2022/11/08 10:07:22;;;;;;;3.58;1.30;;;13.90;96.50;;;;;;5068640;28;20017;-64
2022/11/08 10:10:28;;;;;;;6.88;1.50;;;13.80;96.30;;;;;;5073293;28;20021;-64
2022/11/08 10:13:00;;;;;;;4.22;1.70;;;13.80;96.30;;;;;;5061453;28;20542;-64
2022/11/08 10:15:53;;;;;;;6.30;1.60;;;13.80;96.70;;;;;;5073664;28;20013;-64
2022/11/08 10:18:22;;;;;;;7.28;2.13;;;13.90;96.60;;;;;;5071795;28;20017;-64
2022/11/08 10:21:09;;;;;;;3.85;1.55;;;13.90;96.50;;;;;;5073807;28;20431;-64
2022/11/08 10:23:45;;;;;;;4.95;1.40;;;14.00;96.00;;;;;;5073144;28;20028;-64
2022/11/08 10:26:19;;;;;;;6.05;1.77;;;14.10;96.10;;;;;;5072771;28;20048;-64
2022/11/08 10:28:50;;;;;;;3.40;1.13;;;14.60;95.70;;;;;;5074001;28;20383;-64
2022/11/08 10:31:18;;;;;;;3.42;1.13;;;14.80;94.90;;;;;;5057585;28;20016;-64
2022/11/08 10:33:55;;;;;;;2.67;1.13;;;15.00;94.60;;;;;;5069221;28;20013;-64
2022/11/08 10:36:43;;;;;;;4.38;1.33;;;15.10;94.00;;;;;;5072411;28;20396;-64
2022/11/08 10:39:08;;;;;;;3.17;1.08;;;15.00;94.20;;;;;;5071834;28;20024;-64
2022/11/08 10:41:49;;;;;;;1.92;1.00;;;15.00;94.10;;;;;;5072103;28;20031;-64
2022/11/08 10:44:20;;;;;;;3.75;1.17;;;14.90;94.50;;;;;;5064663;28;20116;-64
2022/11/08 10:46:54;;;;;;;3.92;1.30;;;14.80;94.10;;;;;;5062650;28;20035;-64
2022/11/08 10:49:28;;;;;;;3.83;0.95;;;14.70;94.10;;;;;;5073928;28;20020;-64
2022/11/08 10:51:59;;;;;;;4.97;1.58;;;14.70;94.50;;;;;;5068166;28;20035;-64
2022/11/08 10:54:44;;;;;;;3.03;1.10;;;14.60;94.10;;;;;;5067309;28;20078;-64
2022/11/08 10:57:13;;;;;;;3.33;1.10;;;14.60;94.30;;;;;;5072252;28;20021;-64
2022/11/08 10:59:40;;;;;;;3.67;1.17;;;14.50;94.50;;;;;;5061646;28;20047;-64
2022/11/08 11:02:20;;;;;;;3.47;1.00;;;14.50;94.60;;;;;;5054358;28;20048;-64
2022/11/08 11:04:45;;;;;;;2.55;1.15;;;14.60;94.60;;;;;;5069306;28;20052;-64
2022/11/08 11:07:31;;;;;;;2.15;1.00;;;14.60;94.40;;;;;;5066182;28;20055;-64
2022/11/08 11:10:15;;;;;;;4.00;1.10;;;14.60;94.50;;;;;;5069368;28;20024;-64
2022/11/08 11:12:40;;;;;;;4.40;1.30;;;14.60;94.50;;;;;;5062067;28;20020;-64
2022/11/08 11:15:14;;;;;;;4.78;1.42;;;14.60;94.60;;;;;;5070211;28;20035;-65
2022/11/08 11:17:42;;;;;;;2.25;0.88;;;14.60;94.10;;;;;;5073600;28;20043;-65
2022/11/08 11:20:21;;;;;;;2.87;0.80;;;14.70;94.40;;;;;;5070214;28;20039;-64
2022/11/08 11:22:47;;;;;;;2.55;0.73;;;14.70;94.30;;;;;;5071673;28;20021;-64
2022/11/08 11:25:16;;;;;;;8.90;1.23;;;14.70;94.30;;;;;;5067342;28;20104;-64
2022/11/08 11:27:42;;;;;;;4.07;0.90;;;14.70;94.10;;;;;;5072724;28;20496;-65
2022/11/08 11:30:21;;;;;;;3.92;1.48;;;14.70;94.50;;;;;;5070524;28;20086;-64
2022/11/08 11:33:23;;;;;;;3.20;1.35;;;14.70;94.00;;;;;;5068702;28;20512;-64
2022/11/08 11:36:06;;;;;;;3.80;1.17;;;14.70;93.90;;;;;;5068468;28;20028;-64
2022/11/08 11:38:48;;;;;;;3.63;1.40;;;14.70;94.00;;;;;;5071700;28;20024;-64
2022/11/08 11:41:26;;;;;;;3.28;1.40;;;14.80;94.30;;;;;;5070125;28;20101;-64
2022/11/08 11:44:28;;;;;;;4.75;1.95;;;14.80;94.10;;;;;;5067147;28;20056;-64
2022/11/08 11:47:00;;;;;;;3.85;1.30;;;14.80;94.10;;;;;;5070126;28;20039;-64
2022/11/08 11:49:28;;;;;;;5.07;1.25;;;14.80;94.00;;;;;;5060005;28;20017;-65
2022/11/08 11:51:55;;;;;;;3.08;1.00;;;14.80;94.30;;;;;;5067196;28;20037;-64
2022/11/08 11:54:33;;;;;;;4.03;1.40;;;15.00;94.60;;;;;;5064959;28;20119;-65
2022/11/08 11:57:06;;;;;;;4.13;1.25;;;15.30;93.80;;;;;;5068843;28;20023;-64
2022/11/08 11:59:55;;;;;;;3.50;1.45;;;15.60;94.00;;;;;;5069104;28;20056;-64
2022/11/08 12:02:42;;;;;;;5.68;1.77;;;15.60;92.90;;;;;;5063072;28;20473;-64
2022/11/08 12:05:12;;;;;;;4.88;1.23;;;15.70;92.70;;;;;;5068542;28;20050;-64
2022/11/08 12:07:50;;;;;;;2.83;1.27;;;15.80;92.50;;;;;;5072382;28;20455;-65
2022/11/08 12:10:41;;;;;;;3.55;1.35;;;15.80;92.30;;;;;;5059098;28;20536;-64
2022/11/08 12:13:24;;;;;;;4.05;1.00;;;15.70;92.30;;;;;;5062112;28;20520;-64
2022/11/08 12:16:05;;;;;;;3.20;1.52;;;15.70;92.60;;;;;;5060505;28;20020;-65
2022/11/08 12:19:03;;;;;;;6.47;1.85;;;15.60;92.50;;;;;;5071968;28;20024;-64
2022/11/08 12:21:53;;;;;;;3.22;0.90;;;15.60;92.70;;;;;;5052550;28;20032;-65
2022/11/08 12:24:36;;;;;;;3.80;1.17;;;15.70;93.00;;;;;;5060333;28;20032;-65
2022/11/08 12:27:07;;;;;;;3.20;1.15;;;15.80;92.40;;;;;;5060263;28;20024;-64
2022/11/08 12:30:02;;;;;;;2.72;1.08;;;15.80;92.50;;;;;;5073040;28;20029;-65
2022/11/08 12:32:52;;;;;;;3.47;1.08;;;15.70;92.70;;;;;;5071854;28;20090;-64
2022/11/08 12:35:39;;;;;;;3.65;1.13;;;15.70;92.80;;;;;;5069474;28;20488;-64
2022/11/08 12:38:42;;;;;;;2.45;1.35;;;15.60;92.80;;;;;;5070466;28;20518;-64
2022/11/08 12:41:33;;;;;;;4.43;1.30;;;15.60;92.90;;;;;;5069312;28;20029;-65
2022/11/08 12:44:17;;;;;;;4.05;1.20;;;15.50;92.80;;;;;;5059121;28;20103;-64
2022/11/08 12:47:10;;;;;;;3.55;1.25;;;15.50;92.70;;;;;;5063066;28;20553;-64
2022/11/08 12:50:13;;;;;;;4.50;1.30;;;15.40;92.70;;;;;;5064969;28;20031;-64
2022/11/08 12:52:59;;;;;;;4.85;1.02;;;15.40;92.90;;;;;;5065362;28;20028;-65
2022/11/08 12:55:31;;;;;;;4.40;0.85;;;15.30;92.80;;;;;;5065129;28;20013;-65
2022/11/08 12:58:00;;;;;;;3.05;1.10;;;15.30;93.20;;;;;;5062830;28;20029;-64
2022/11/08 13:00:28;;;;;;;3.40;0.85;;;15.30;93.20;;;;;;5061660;28;20025;-65
2022/11/08 13:03:19;;;;;;;4.75;1.13;;;15.40;92.90;;;;;;5069949;28;20547;-64
2022/11/08 13:05:57;;;;;;;4.13;1.02;;;15.50;92.90;;;;;;5067934;28;20027;-64
2022/11/08 13:08:34;;;;;;;5.10;1.70;;;15.50;92.80;;;;;;5067776;28;20043;-64
2022/11/08 13:11:05;;;;;;;5.38;1.52;;;15.50;92.70;;;;;;5065608;28;20488;-64
2022/11/08 13:13:39;;;;;;;4.45;1.30;;;15.70;92.30;;;;;;5070422;28;21600;-64
2022/11/08 13:16:25;;;;;;;4.47;1.20;;;15.90;92.20;;;;;;5068571;28;20117;-64
2022/11/08 13:18:51;;;;;;;2.88;1.10;;;16.10;91.60;;;;;;5070344;28;20050;-65
2022/11/08 13:21:30;;;;;;;6.35;1.10;;;16.40;91.20;;;;;;5070171;28;20476;-65